Time;durP1;ratioP1;P1;durP2;ratioP2;P2;SDS_P1;SDS_P2;PMS_P1;PMS_P2;Temp;Humidity;BMP_temperature;BMP_pressure;BME280_temperature;BME280_humidity;BME280_pressure;Samples;Min_cycle;Max_cycle;Signal;HPM_P1;HPM_P2
2022/08/30 00:02:37;;;;;;;18.80;14.87;;;;;;;21.96;79.93;99640.22;1780718;80;21017;-73
2022/08/30 00:05:04;;;;;;;16.10;14.47;;;;;;;21.88;80.25;99641.98;1822172;78;20986;-76
2022/08/30 00:07:30;;;;;;;15.03;12.35;;;;;;;21.82;80.28;99641.63;1784159;80;21096;-74
2022/08/30 00:09:57;;;;;;;15.83;13.45;;;;;;;21.83;80.55;99642.73;1770446;80;21004;-75
2022/08/30 00:12:24;;;;;;;16.50;13.10;;;;;;;21.87;80.21;99637.66;1778283;79;21122;-74
2022/08/30 00:14:50;;;;;;;17.60;13.93;;;;;;;21.85;80.42;99641.14;1778090;79;21072;-75
2022/08/30 00:17:18;;;;;;;18.32;14.73;;;;;;;21.77;80.50;99635.06;1769510;79;21065;-75
2022/08/30 00:19:44;;;;;;;15.10;12.78;;;;;;;21.70;80.65;99638.45;1800322;79;21060;-74
2022/08/30 00:22:12;;;;;;;16.75;13.10;;;;;;;21.73;80.69;99639.84;1826510;76;21017;-71
2022/08/30 00:24:38;;;;;;;16.60;12.98;;;;;;;21.78;80.49;99643.45;1843724;77;21152;-71
2022/08/30 00:27:05;;;;;;;14.53;13.13;;;;;;;21.74;80.46;99638.24;1843759;77;21515;-74
2022/08/30 00:29:31;;;;;;;18.35;15.15;;;;;;;21.70;80.75;99643.05;1833574;77;21551;-72
2022/08/30 00:31:58;;;;;;;18.15;13.18;;;;;;;21.64;80.88;99638.08;1828937;77;21065;-75
2022/08/30 00:34:24;;;;;;;14.90;13.30;;;;;;;21.65;81.25;99642.41;1838763;77;21503;-73
2022/08/30 00:36:51;;;;;;;16.67;15.00;;;;;;;21.65;81.20;99637.00;1844590;77;21061;-72
2022/08/30 00:39:17;;;;;;;17.48;14.70;;;;;;;21.58;81.30;99636.35;1801674;79;20992;-72
2022/08/30 00:41:44;;;;;;;16.05;12.23;;;;;;;21.51;81.58;99636.48;1844198;77;21070;-71
2022/08/30 00:44:10;;;;;;;14.65;13.15;;;;;;;21.50;81.76;99635.37;1858756;76;20989;-73
2022/08/30 00:46:37;;;;;;;15.25;13.22;;;;;;;21.53;81.94;99641.66;1828217;76;21117;-71
2022/08/30 00:49:06;;;;;;;15.68;13.95;;;;;;;21.47;81.86;99642.63;1832164;77;21264;-71
2022/08/30 00:51:33;;;;;;;15.88;14.30;;;;;;;21.38;82.22;99639.45;1837355;76;21175;-72
2022/08/30 00:53:59;;;;;;;15.18;13.58;;;;;;;21.28;82.82;99640.08;1840254;76;21101;-73
2022/08/30 00:56:26;;;;;;;21.57;14.75;;;;;;;21.31;82.54;99639.61;1843451;77;21356;-74
2022/08/30 00:58:54;;;;;;;14.95;13.45;;;;;;;21.31;82.69;99645.02;1792983;79;21094;-72
2022/08/30 01:01:21;;;;;;;15.60;13.88;;;;;;;21.25;82.86;99644.63;1828575;76;21201;-73
2022/08/30 01:03:48;;;;;;;15.53;13.18;;;;;;;21.19;82.91;99648.30;1842883;77;21003;-75
2022/08/30 01:06:14;;;;;;;16.40;12.37;;;;;;;21.18;83.26;99649.34;1844517;77;21585;-75
2022/08/30 01:08:42;;;;;;;15.90;14.20;;;;;;;21.25;83.00;99653.24;1808430;77;21515;-74
2022/08/30 01:11:11;;;;;;;15.35;13.95;;;;;;;21.20;82.98;99654.79;1824746;78;21130;-72
2022/08/30 01:13:37;;;;;;;16.32;12.75;;;;;;;21.15;83.25;99649.81;1823739;77;21779;-74
2022/08/30 01:16:05;;;;;;;13.48;12.07;;;;;;;21.08;83.40;99649.16;1825544;77;21645;-73
2022/08/30 01:18:33;;;;;;;17.12;12.80;;;;;;;21.08;83.52;99647.80;1824596;77;21063;-72
2022/08/30 01:21:09;;;;;;;17.12;12.13;;;;;;;21.11;83.41;99652.20;1748438;81;21003;-75
2022/08/30 01:23:39;;;;;;;14.60;13.05;;;;;;;21.07;83.50;99656.41;1756535;81;21056;-74
2022/08/30 01:26:05;;;;;;;13.98;12.58;;;;;;;21.02;83.71;99649.58;1750709;81;21119;-74
2022/08/30 01:28:32;;;;;;;14.07;12.53;;;;;;;21.04;83.70;99654.75;1803770;79;21564;-76
2022/08/30 01:31:01;;;;;;;12.75;11.50;;;;;;;21.08;83.79;99651.86;1799221;79;21572;-76
2022/08/30 01:33:28;;;;;;;15.88;12.88;;;;;;;21.03;83.69;99650.39;1801780;79;22127;-73
2022/08/30 01:36:01;;;;;;;12.90;11.53;;;;;;;20.95;83.99;99644.30;1789800;79;21579;-73
2022/08/30 01:38:35;;;;;;;12.82;11.45;;;;;;;20.93;84.04;99641.02;1809979;79;22214;-72
2022/08/30 01:41:18;;;;;;;14.35;12.93;;;;;;;20.96;84.02;99640.55;1800020;79;22016;-71
2022/08/30 01:43:45;;;;;;;15.63;13.98;;;;;;;20.91;84.26;99636.92;1782099;79;21028;-73
2022/08/30 01:46:12;;;;;;;14.25;12.82;;;;;;;20.82;84.45;99643.20;1800546;79;21091;-72
2022/08/30 01:48:40;;;;;;;15.00;13.40;;;;;;;20.81;84.65;99641.05;1788347;79;21135;-74
2022/08/30 01:51:11;;;;;;;16.42;13.25;;;;;;;20.86;84.70;99647.60;1801300;79;21111;-73
2022/08/30 01:53:40;;;;;;;19.40;14.28;;;;;;;20.82;84.90;99652.66;1791836;79;21047;-73
2022/08/30 01:56:07;;;;;;;14.30;12.88;;;;;;;20.74;85.26;99648.98;1812858;79;21092;-73
2022/08/30 01:58:35;;;;;;;14.33;12.82;;;;;;;20.70;85.44;99641.06;1807748;79;21032;-72
2022/08/30 02:01:04;;;;;;;16.05;14.35;;;;;;;20.73;85.49;99645.47;1811414;79;21071;-73
2022/08/30 02:03:33;;;;;;;15.23;13.70;;;;;;;20.69;85.73;99644.84;1790001;79;21125;-74
2022/08/30 02:06:05;;;;;;;14.38;12.75;;;;;;;20.60;86.07;99653.27;1788240;79;21528;-74
2022/08/30 02:08:31;;;;;;;14.58;12.60;;;;;;;20.58;86.17;99659.41;1795679;79;21045;-75
2022/08/30 02:10:58;;;;;;;14.87;13.32;;;;;;;20.64;86.04;99662.26;1785909;79;21031;-72
2022/08/30 02:13:26;;;;;;;16.23;14.50;;;;;;;20.60;86.30;99661.91;1815545;76;21107;-71
2022/08/30 02:15:54;;;;;;;13.72;12.33;;;;;;;20.52;86.65;99656.84;1828619;76;21488;-73
2022/08/30 02:18:23;;;;;;;14.87;13.05;;;;;;;20.52;86.62;99656.30;1843012;77;20936;-71
2022/08/30 02:20:49;;;;;;;16.70;13.00;;;;;;;20.56;86.65;99658.02;1835226;77;20975;-74
2022/08/30 02:23:16;;;;;;;15.23;12.78;;;;;;;20.50;86.96;99660.30;1813722;76;21056;-72
2022/08/30 02:25:44;;;;;;;14.33;12.93;;;;;;;20.40;87.10;99657.66;1836117;77;21045;-71
2022/08/30 02:28:10;;;;;;;15.85;13.00;;;;;;;20.44;86.97;99656.67;1834788;76;21178;-74
2022/08/30 02:30:38;;;;;;;15.72;13.62;;;;;;;20.48;87.09;99663.23;1836910;77;21046;-71
2022/08/30 02:33:04;;;;;;;15.45;13.62;;;;;;;20.42;87.15;99662.83;1833816;76;21034;-73
2022/08/30 02:35:31;;;;;;;19.02;13.55;;;;;;;20.35;87.39;99657.53;1837413;76;20979;-73
2022/08/30 02:37:58;;;;;;;14.65;13.15;;;;;;;20.37;87.68;99661.35;1843990;77;20954;-72
2022/08/30 02:40:24;;;;;;;17.27;14.45;;;;;;;20.37;87.76;99666.75;1832558;76;21693;-72
2022/08/30 02:42:51;;;;;;;17.12;12.65;;;;;;;20.28;87.84;99672.19;1839457;76;21095;-72
2022/08/30 02:45:17;;;;;;;16.75;13.28;;;;;;;20.21;88.22;99674.48;1841904;77;21008;-72
2022/08/30 02:47:44;;;;;;;15.35;13.90;;;;;;;20.23;88.44;99675.59;1802147;79;21077;-73
2022/08/30 02:50:11;;;;;;;14.30;12.80;;;;;;;20.17;88.74;99675.19;1774416;79;21009;-70
2022/08/30 02:52:37;;;;;;;16.85;14.05;;;;;;;20.11;89.04;99669.34;1791516;78;21188;-70
2022/08/30 02:55:05;;;;;;;15.32;13.88;;;;;;;20.11;89.31;99682.33;1792709;79;21032;-71
2022/08/30 02:57:32;;;;;;;15.25;12.63;;;;;;;20.03;89.75;99686.72;1813336;77;21509;-71
2022/08/30 02:59:59;;;;;;;15.20;13.38;;;;;;;19.97;89.74;99684.42;1838343;76;21019;-72
2022/08/30 03:02:25;;;;;;;15.48;13.90;;;;;;;19.97;89.95;99692.51;1836705;76;21109;-73
2022/08/30 03:04:51;;;;;;;15.88;14.38;;;;;;;19.92;90.30;99684.28;1841173;76;21099;-72
2022/08/30 03:07:18;;;;;;;15.18;13.55;;;;;;;19.84;90.53;99690.83;1819655;77;21029;-72
2022/08/30 03:09:44;;;;;;;15.70;14.20;;;;;;;19.83;90.79;99691.86;1840321;76;21002;-73
2022/08/30 03:12:13;;;;;;;17.85;15.63;;;;;;;19.83;90.78;99691.86;1830663;77;21048;-69
2022/08/30 03:14:39;;;;;;;15.88;14.18;;;;;;;19.79;91.03;99690.68;1831737;76;20967;-68
2022/08/30 03:17:07;;;;;;;18.05;14.70;;;;;;;19.70;91.39;99690.70;1842652;77;21547;-69
2022/08/30 03:19:39;;;;;;;17.32;14.78;;;;;;;19.73;91.52;99698.88;1820902;77;21027;-70
2022/08/30 03:22:04;;;;;;;17.52;15.03;;;;;;;19.70;91.51;99697.44;1806882;77;21028;-72
2022/08/30 03:24:31;;;;;;;15.25;13.65;;;;;;;19.65;91.85;99692.72;1818598;78;21533;-70
2022/08/30 03:26:58;;;;;;;16.80;15.18;;;;;;;19.70;91.73;99697.94;1779683;79;21044;-71
2022/08/30 03:29:24;;;;;;;17.62;15.75;;;;;;;19.74;91.76;99701.34;1760603;81;21135;-71
2022/08/30 03:31:51;;;;;;;16.62;15.03;;;;;;;19.70;91.76;99702.83;1766898;80;21072;-72
2022/08/30 03:34:18;;;;;;;16.62;14.65;;;;;;;19.70;91.78;99708.22;1776044;80;21045;-71
2022/08/30 03:36:44;;;;;;;16.75;15.00;;;;;;;19.76;91.60;99703.79;1763007;80;21062;-69
2022/08/30 03:39:11;;;;;;;21.62;17.82;;;;;;;19.76;91.58;99710.02;1763364;80;21077;-71
2022/08/30 03:41:37;;;;;;;17.85;15.95;;;;;;;19.75;91.69;99716.45;1773482;80;21226;-72
2022/08/30 03:44:04;;;;;;;15.40;13.62;;;;;;;19.78;91.34;99717.35;1776089;80;21688;-70
2022/08/30 03:46:30;;;;;;;16.90;15.38;;;;;;;19.82;91.15;99721.23;1775843;80;21037;-72
2022/08/30 03:48:57;;;;;;;19.32;17.32;;;;;;;19.82;91.22;99725.27;1770940;79;21010;-70
2022/08/30 03:51:24;;;;;;;16.70;15.03;;;;;;;19.74;91.17;99726.11;1794501;79;21064;-71
2022/08/30 03:53:51;;;;;;;18.52;16.20;;;;;;;19.70;91.48;99729.78;1801854;79;21135;-70
2022/08/30 03:56:20;;;;;;;18.80;16.73;;;;;;;19.71;91.18;99730.59;1772067;79;21247;-72
2022/08/30 03:58:46;;;;;;;20.43;18.35;;;;;;;19.66;91.51;99744.73;1757853;79;21074;-70
2022/08/30 04:01:12;;;;;;;18.90;16.95;;;;;;;19.60;91.90;99749.69;1770368;79;21081;-70
2022/08/30 04:03:39;;;;;;;20.15;17.02;;;;;;;19.62;91.97;99751.63;1790535;79;21009;-72
2022/08/30 04:06:05;;;;;;;19.45;17.48;;;;;;;19.62;92.08;99755.67;1791132;79;21130;-73
2022/08/30 04:08:32;;;;;;;18.27;16.48;;;;;;;19.55;92.48;99753.61;1785897;79;21014;-70
2022/08/30 04:10:59;;;;;;;19.10;17.02;;;;;;;19.50;92.67;99756.15;1781752;79;21009;-69
2022/08/30 04:13:27;;;;;;;19.95;18.05;;;;;;;19.56;92.68;99757.40;1819787;77;21035;-71
2022/08/30 04:15:53;;;;;;;19.82;17.70;;;;;;;19.56;92.94;99759.28;1811385;77;21024;-71
2022/08/30 04:18:20;;;;;;;19.07;17.23;;;;;;;19.50;93.20;99758.84;1826430;78;21773;-70
2022/08/30 04:20:46;;;;;;;21.17;18.95;;;;;;;19.53;93.10;99764.61;1823807;77;21523;-70
2022/08/30 04:23:13;;;;;;;20.00;17.80;;;;;;;19.55;93.10;99756.30;1824014;78;21079;-71
2022/08/30 04:25:40;;;;;;;20.25;17.17;;;;;;;19.50;93.10;99756.15;1824036;77;21088;-71
2022/08/30 04:28:07;;;;;;;18.60;16.60;;;;;;;19.53;93.13;99759.22;1818185;77;21058;-71
2022/08/30 04:30:39;;;;;;;20.02;18.12;;;;;;;19.59;92.88;99754.80;1824811;77;21290;-71
2022/08/30 04:33:06;;;;;;;17.65;15.78;;;;;;;19.60;92.93;99759.12;1796437;78;21551;-72
2022/08/30 04:35:33;;;;;;;17.23;15.35;;;;;;;19.63;92.92;99758.68;1818785;78;20989;-72
2022/08/30 04:38:02;;;;;;;18.27;16.48;;;;;;;19.72;92.46;99751.96;1813805;78;21048;-72
2022/08/30 04:40:28;;;;;;;19.27;17.10;;;;;;;19.77;92.12;99753.43;1807553;78;21124;-72
2022/08/30 04:42:55;;;;;;;16.25;14.60;;;;;;;19.79;92.01;99753.20;1826174;78;21211;-73
2022/08/30 04:45:22;;;;;;;16.17;14.47;;;;;;;19.88;91.68;99746.98;1822601;77;21503;-71
2022/08/30 04:47:49;;;;;;;16.67;14.95;;;;;;;19.99;91.09;99745.67;1813000;78;21087;-70
2022/08/30 04:50:17;;;;;;;18.32;15.53;;;;;;;20.02;90.60;99753.81;1818004;78;21095;-72
2022/08/30 04:52:44;;;;;;;16.20;14.50;;;;;;;20.01;90.60;99756.20;1806209;78;21269;-72
2022/08/30 04:55:11;;;;;;;15.50;14.05;;;;;;;20.12;90.11;99758.65;1801345;78;21115;-69
2022/08/30 04:57:39;;;;;;;16.20;14.58;;;;;;;20.19;89.69;99760.20;1803356;78;21035;-72
2022/08/30 05:00:09;;;;;;;15.45;14.05;;;;;;;20.20;89.26;99752.41;1817612;77;21000;-73
2022/08/30 05:02:38;;;;;;;13.78;12.45;;;;;;;20.20;89.05;99753.77;1805183;78;21078;-72
2022/08/30 05:07:51;;;;;;;14.70;13.20;;;;;;;20.40;88.45;99760.72;1812410;77;21148;-72
2022/08/30 05:10:18;;;;;;;14.65;12.93;;;;;;;20.39;88.28;99755.83;1816625;77;21038;-76
2022/08/30 05:12:45;;;;;;;13.50;12.28;;;;;;;20.38;87.95;99765.53;1823536;78;21618;-73
2022/08/30 05:15:12;;;;;;;14.30;12.88;;;;;;;20.48;87.82;99766.30;1822107;78;21571;-71
2022/08/30 05:17:39;;;;;;;15.40;13.88;;;;;;;20.52;87.15;99764.25;1810518;78;21027;-73
2022/08/30 05:20:08;;;;;;;12.65;11.35;;;;;;;20.50;87.11;99766.36;1825502;77;21104;-73
2022/08/30 05:25:04;;;;;;;10.75;9.80;;;;;;;20.70;85.80;99754.44;1827408;77;22580;-72
2022/08/30 05:27:31;;;;;;;12.23;10.93;;;;;;;20.66;85.33;99757.31;1784350;78;20978;-73
2022/08/30 05:29:58;;;;;;;14.38;10.03;;;;;;;20.65;85.49;99758.34;1794212;78;21286;-73
2022/08/30 05:32:24;;;;;;;11.30;10.23;;;;;;;20.73;85.38;99752.62;1800634;78;21065;-72
2022/08/30 05:34:51;;;;;;;11.30;10.15;;;;;;;20.82;84.97;99759.29;1796090;78;21013;-74
2022/08/30 05:37:18;;;;;;;11.60;10.50;;;;;;;20.84;84.91;99765.28;1805148;78;21525;-76
2022/08/30 05:39:44;;;;;;;9.53;8.63;;;;;;;20.84;84.12;99761.23;1813952;78;20953;-73
2022/08/30 05:42:10;;;;;;;9.35;8.45;;;;;;;20.89;83.26;99759.19;1821498;78;21091;-73
2022/08/30 05:44:37;;;;;;;9.53;8.38;;;;;;;21.00;82.93;99751.61;1807958;78;20930;-73
2022/08/30 05:47:04;;;;;;;9.53;8.70;;;;;;;21.05;82.40;99745.49;1824798;78;21049;-75
2022/08/30 05:49:32;;;;;;;9.85;8.85;;;;;;;21.06;82.57;99752.55;1824673;78;22016;-73
2022/08/30 05:51:58;;;;;;;9.53;8.55;;;;;;;21.06;82.46;99742.56;1824649;78;21012;-73
2022/08/30 05:54:26;;;;;;;11.18;8.50;;;;;;;21.16;82.12;99756.81;1825007;78;21093;-72
2022/08/30 05:56:53;;;;;;;9.50;8.70;;;;;;;21.24;81.88;99755.63;1823961;78;21020;-73
2022/08/30 05:59:21;;;;;;;10.23;9.23;;;;;;;21.24;81.61;99753.73;1824701;78;21035;-73
2022/08/30 06:01:47;;;;;;;9.15;8.38;;;;;;;21.23;81.50;99756.16;1805282;78;21054;-72
2022/08/30 06:04:14;;;;;;;9.23;8.43;;;;;;;21.34;81.35;99749.08;1811616;78;21040;-72
2022/08/30 06:06:42;;;;;;;8.85;7.97;;;;;;;21.46;80.92;99755.32;1808512;78;21688;-72
2022/08/30 06:09:10;;;;;;;10.68;8.50;;;;;;;21.50;80.47;99748.87;1800896;78;21009;-75
2022/08/30 06:11:37;;;;;;;9.28;8.48;;;;;;;21.54;80.42;99752.23;1800231;78;21525;-73
2022/08/30 06:14:04;;;;;;;8.13;7.45;;;;;;;21.57;80.24;99756.33;1794280;78;21614;-73
2022/08/30 06:16:31;;;;;;;10.20;7.70;;;;;;;21.69;79.75;99753.07;1796244;78;21031;-76
2022/08/30 06:18:58;;;;;;;10.10;8.70;;;;;;;21.73;79.00;99759.63;1811558;78;21105;-74
2022/08/30 06:21:29;;;;;;;9.83;8.93;;;;;;;21.70;79.40;99747.94;1813985;78;21010;-75
2022/08/30 06:23:57;;;;;;;9.35;8.43;;;;;;;21.68;79.55;99751.42;1805814;78;21074;-76
2022/08/30 06:26:25;;;;;;;8.83;8.13;;;;;;;21.76;79.49;99759.13;1812845;78;21007;-73
2022/08/30 06:28:52;;;;;;;10.35;7.80;;;;;;;21.87;78.83;99756.11;1810738;78;21063;-76
2022/08/30 06:31:19;;;;;;;8.65;7.85;;;;;;;21.90;78.12;99754.25;1798289;78;21327;-75
2022/08/30 06:33:46;;;;;;;8.90;7.85;;;;;;;21.96;78.22;99759.22;1808776;78;21544;-76
2022/08/30 06:36:16;;;;;;;8.20;7.40;;;;;;;22.00;77.39;99759.05;1816619;78;21537;-75
2022/08/30 06:38:44;;;;;;;6.90;6.25;;;;;;;22.03;75.79;99760.44;1799526;78;21026;-75
2022/08/30 06:41:14;;;;;;;10.10;6.85;;;;;;;22.06;75.37;99763.48;1801905;78;21033;-81
2022/08/30 06:43:41;;;;;;;7.50;6.78;;;;;;;22.18;75.14;99761.52;1807849;78;21584;-77
2022/08/30 06:46:12;;;;;;;6.70;6.05;;;;;;;22.22;74.95;99759.16;1793831;78;21040;-79
2022/08/30 06:48:38;;;;;;;7.00;6.00;;;;;;;22.23;73.77;99760.78;1805807;78;21005;-78
2022/08/30 06:51:05;;;;;;;7.15;6.50;;;;;;;22.25;73.39;99765.98;1804390;78;21057;-78
2022/08/30 06:53:33;;;;;;;7.10;6.10;;;;;;;22.28;72.73;99768.22;1808814;78;21053;-76
2022/08/30 06:56:08;;;;;;;8.20;6.22;;;;;;;22.32;71.88;99769.36;1797644;78;21239;-77
2022/08/30 06:58:37;;;;;;;6.83;6.05;;;;;;;22.37;71.74;99764.05;1808187;78;21045;-77
2022/08/30 07:01:07;;;;;;;7.95;6.87;;;;;;;22.43;71.47;99767.13;1805825;78;21157;-77
2022/08/30 07:03:36;;;;;;;7.40;6.70;;;;;;;22.46;71.23;99773.37;1806837;78;21041;-76
2022/08/30 07:06:03;;;;;;;6.78;5.53;;;;;;;22.47;71.60;99766.10;1799057;78;21138;-77
2022/08/30 07:08:30;;;;;;;6.12;5.60;;;;;;;22.50;71.19;99764.23;1804470;78;21273;-77
2022/08/30 07:10:56;;;;;;;5.58;5.03;;;;;;;22.52;69.35;99776.98;1819419;78;21052;-76
2022/08/30 07:13:23;;;;;;;5.97;5.37;;;;;;;22.54;68.23;99776.20;1803295;78;20987;-79
2022/08/30 07:15:52;;;;;;;5.58;5.08;;;;;;;22.61;68.73;99770.11;1807021;78;21583;-78
2022/08/30 07:21:11;;;;;;;8.10;5.87;;;;;;;22.80;67.71;99774.73;1769502;80;22480;-77
2022/08/30 07:23:38;;;;;;;;;;;;;;;22.87;68.04;99778.09;1735097;81;21109;-78
2022/08/30 07:26:06;;;;;;;6.00;5.42;;;;;;;22.95;67.97;99775.50;1778377;80;20180;-77
2022/08/30 07:28:32;;;;;;;6.90;5.33;;;;;;;22.96;66.99;99772.52;1756336;81;21050;-77
2022/08/30 07:30:58;;;;;;;8.35;5.67;;;;;;;23.01;67.21;99781.27;1755869;81;21058;-76
2022/08/30 07:33:25;;;;;;;5.87;5.25;;;;;;;23.07;66.18;99772.72;1767529;80;21134;-73
2022/08/30 07:35:54;;;;;;;5.95;5.45;;;;;;;23.15;66.37;99774.98;1774865;80;21097;-75
2022/08/30 07:38:20;;;;;;;5.17;4.72;;;;;;;23.25;64.79;99785.95;1763184;81;21035;-75
2022/08/30 07:40:47;;;;;;;5.22;4.72;;;;;;;23.32;63.81;99779.83;1768846;80;21045;-75
2022/08/30 07:43:13;;;;;;;6.70;4.58;;;;;;;23.34;61.61;99789.88;1755998;81;21066;-74
2022/08/30 07:45:40;;;;;;;4.97;4.47;;;;;;;23.32;61.51;99779.02;1773077;80;21649;-76
2022/08/30 07:48:06;;;;;;;7.03;4.92;;;;;;;23.31;62.16;99780.91;1748322;81;21062;-76
2022/08/30 07:50:32;;;;;;;8.05;5.45;;;;;;;;;;1748537;80;21523;-78
2022/08/30 07:52:59;;;;;;;5.60;4.90;;;;;;;23.39;62.18;99776.91;1777847;80;21537;-72
2022/08/30 07:55:25;;;;;;;8.43;5.25;;;;;;;23.45;62.51;99773.73;1759940;80;21022;-73
2022/08/30 07:57:52;;;;;;;7.15;5.15;;;;;;;23.54;62.17;99769.52;1755987;80;21173;-75
2022/08/30 08:00:18;;;;;;;6.70;4.53;;;;;;;23.61;62.20;99772.86;1763927;80;21081;-74
2022/08/30 08:02:45;;;;;;;5.33;4.83;;;;;;;23.69;61.95;99771.05;1750921;81;21085;-73
2022/08/30 08:05:13;;;;;;;5.37;4.75;;;;;;;23.79;61.10;99770.91;1772791;80;21747;-73
2022/08/30 08:07:43;;;;;;;5.33;4.40;;;;;;;23.84;59.45;99773.70;1745398;80;21025;-75
2022/08/30 08:10:12;;;;;;;5.03;4.53;;;;;;;23.87;59.20;99775.88;1748682;81;21547;-75
2022/08/30 08:12:40;;;;;;;4.83;4.42;;;;;;;23.90;59.39;99774.03;1754482;80;21057;-76
2022/08/30 08:15:08;;;;;;;6.08;5.47;;;;;;;23.96;59.58;99773.55;1740764;81;21066;-74
2022/08/30 08:17:35;;;;;;;8.00;5.05;;;;;;;24.02;59.56;99771.97;1755295;80;21354;-71
2022/08/30 08:20:04;;;;;;;6.78;5.20;;;;;;;24.06;59.67;99773.09;1746849;80;21091;-73
2022/08/30 08:22:31;;;;;;;7.05;5.08;;;;;;;24.10;59.73;99771.50;1756222;80;21169;-74
2022/08/30 08:24:57;;;;;;;5.12;4.30;;;;;;;24.20;59.66;99769.96;1770246;80;21541;-74
2022/08/30 08:27:24;;;;;;;5.45;4.60;;;;;;;24.30;58.93;99769.53;1769739;80;21045;-74
2022/08/30 08:29:51;;;;;;;6.35;5.05;;;;;;;24.39;58.62;99759.00;1747659;80;21574;-75
2022/08/30 08:32:17;;;;;;;5.40;4.90;;;;;;;24.46;58.83;99759.61;1762049;80;21085;-77
2022/08/30 08:34:44;;;;;;;5.65;5.05;;;;;;;24.59;58.86;99765.70;1761279;80;21115;-76
2022/08/30 08:37:10;;;;;;;4.58;4.17;;;;;;;24.73;58.31;99769.62;1730162;80;21045;-74
2022/08/30 08:39:37;;;;;;;6.65;4.85;;;;;;;24.86;57.40;99769.17;1735601;81;21022;-74
2022/08/30 08:42:22;;;;;;;6.30;4.40;;;;;;;24.93;57.35;99768.38;1761317;80;21119;-77
2022/08/30 08:45:08;;;;;;;5.05;4.15;;;;;;;25.03;56.24;99764.09;1763637;80;21056;-74
2022/08/30 08:47:50;;;;;;;5.10;4.37;;;;;;;25.09;54.81;99786.13;1760606;80;21117;-75
2022/08/30 08:50:18;;;;;;;4.77;4.37;;;;;;;25.04;54.93;99761.11;1762593;80;21552;-72
2022/08/30 08:55:58;;;;;;;7.50;4.95;;;;;;;25.08;54.81;99764.94;1751556;80;21104;-77
2022/08/30 08:58:27;;;;;;;6.42;4.58;;;;;;;25.24;53.46;99764.50;1739162;81;21163;-78
2022/08/30 09:00:55;;;;;;;8.53;4.95;;;;;;;25.25;53.16;99766.70;1776846;80;21214;-77
2022/08/30 09:03:23;;;;;;;5.87;4.85;;;;;;;25.22;54.02;99762.59;1782945;80;21053;-80
2022/08/30 09:05:50;;;;;;;6.12;4.55;;;;;;;25.27;53.82;99765.34;1766199;80;21084;-80
2022/08/30 09:08:18;;;;;;;5.72;4.70;;;;;;;25.40;54.37;99767.28;1750472;80;21030;-80
2022/08/30 09:10:55;;;;;;;8.28;4.80;;;;;;;25.69;54.04;99763.06;1756520;80;21041;-81
2022/08/30 09:13:24;;;;;;;4.95;4.55;;;;;;;26.09;53.47;99766.96;1745053;81;21549;-78
2022/08/30 09:15:52;;;;;;;4.78;4.20;;;;;;;26.61;52.03;99767.83;1741390;81;21152;-80
2022/08/30 09:18:18;;;;;;;14.95;4.40;;;;;;;27.13;50.73;99770.47;1743513;81;21002;-80
2022/08/30 09:20:47;;;;;;;5.95;3.72;;;;;;;27.62;50.29;99759.66;1737603;81;21041;-81
2022/08/30 09:23:31;;;;;;;5.65;3.98;;;;;;;28.26;49.75;99757.10;1704725;81;21588;-78
2022/08/30 09:26:01;;;;;;;4.03;3.58;;;;;;;29.02;47.84;99754.77;1731333;81;21261;-80
2022/08/30 09:28:32;;;;;;;4.40;4.00;;;;;;;29.81;46.67;99756.31;1714890;82;21592;-78
2022/08/30 09:31:05;;;;;;;8.45;4.35;;;;;;;30.52;46.05;99755.73;1713406;82;21048;-80
2022/08/30 09:33:32;;;;;;;5.15;4.42;;;;;;;31.11;43.95;99759.60;1731483;82;21025;-80
2022/08/30 09:36:24;;;;;;;4.87;4.35;;;;;;;31.47;43.42;99756.16;1730492;82;21041;-82
2022/08/30 09:39:05;;;;;;;4.53;3.83;;;;;;;31.79;43.01;99752.98;1729467;82;21109;-82
2022/08/30 09:41:41;;;;;;;5.42;4.15;;;;;;;31.90;43.18;99751.63;1719834;82;21418;-83
2022/08/30 09:44:26;;;;;;;5.22;4.70;;;;;;;32.27;42.78;99748.30;1724601;82;21605;-84
2022/08/30 09:47:00;;;;;;;5.05;4.03;;;;;;;32.75;41.72;99749.58;1726176;82;21041;-82
2022/08/30 09:49:39;;;;;;;4.85;4.00;;;;;;;33.15;41.08;99750.98;1722191;82;21049;-81
2022/08/30 09:52:40;;;;;;;5.90;3.90;;;;;;;33.50;40.06;99760.13;1710247;82;21202;-82
2022/08/30 09:55:41;;;;;;;3.72;3.42;;;;;;;33.67;38.90;99764.09;1723048;82;21541;-81
2022/08/30 09:58:36;;;;;;;4.05;3.70;;;;;;;33.62;38.89;99751.23;1719254;82;21094;-80
2022/08/30 10:01:20;;;;;;;3.98;3.50;;;;;;;33.85;39.00;99751.13;1725059;82;21045;-80
2022/08/30 10:04:14;;;;;;;5.40;3.50;;;;;;;34.39;38.03;99749.41;1711020;81;21051;-80
2022/08/30 10:06:53;;;;;;;4.92;3.30;;;;;;;34.92;37.90;99749.50;1710614;82;22560;-83
2022/08/30 10:09:35;;;;;;;3.62;3.33;;;;;;;35.09;36.79;99755.52;1746672;81;21545;-75
2022/08/30 10:12:22;;;;;;;4.40;3.35;;;;;;;35.01;37.07;99753.03;1760544;80;21548;-82
2022/08/30 10:15:10;;;;;;;5.97;3.67;;;;;;;34.98;36.28;99754.27;1745045;81;21548;-83
2022/08/30 10:18:09;;;;;;;4.20;3.80;;;;;;;34.77;36.39;99751.42;1757791;81;21084;-76
2022/08/30 10:20:45;;;;;;;5.22;3.85;;;;;;;34.53;36.79;99750.59;1719936;82;21611;-76
2022/08/30 10:23:15;;;;;;;3.98;3.52;;;;;;;34.47;37.06;99742.48;1699018;82;21018;-76
2022/08/30 10:26:12;;;;;;;3.87;3.50;;;;;;;34.62;36.50;99738.97;1720722;81;21156;-76
2022/08/30 10:28:48;;;;;;;3.90;3.35;;;;;;;34.94;36.17;99754.69;1745298;81;21052;-77
2022/08/30 10:31:29;;;;;;;5.22;3.67;;;;;;;35.00;36.08;99750.05;1764236;80;21036;-76
2022/08/30 10:34:01;;;;;;;3.87;3.42;;;;;;;34.97;35.86;99752.66;1738951;80;21218;-77
2022/08/30 10:36:34;;;;;;;4.87;3.60;;;;;;;34.93;35.90;99737.91;1722363;83;21224;-77
2022/08/30 10:39:01;;;;;;;3.40;3.10;;;;;;;35.04;36.09;99737.20;1752880;81;21108;-78
2022/08/30 10:41:35;;;;;;;5.20;3.20;;;;;;;35.50;35.22;99739.39;1752012;80;21048;-78
2022/08/30 10:44:26;;;;;;;4.33;3.77;;;;;;;35.85;35.17;99739.15;1747071;81;21171;-78
2022/08/30 10:47:16;;;;;;;3.60;3.30;;;;;;;36.24;35.06;99744.77;1767427;80;21054;-76
2022/08/30 10:49:45;;;;;;;3.60;3.20;;;;;;;36.53;34.23;99738.27;1764540;80;20997;-80
2022/08/30 10:52:26;;;;;;;4.10;2.92;;;;;;;36.45;34.55;99738.36;1762128;80;22089;-79
2022/08/30 10:55:14;;;;;;;4.42;3.35;;;;;;;36.71;34.10;99729.80;1755834;81;21053;-81
2022/08/30 10:57:44;;;;;;;3.87;3.15;;;;;;;36.78;33.78;99725.31;1755949;81;21595;-79
2022/08/30 11:00:14;;;;;;;4.42;3.27;;;;;;;36.68;33.52;99731.28;1738449;81;21116;-77
2022/08/30 11:03:22;;;;;;;7.47;3.33;;;;;;;36.71;33.75;99728.41;1734613;80;21610;-82
2022/08/30 11:06:06;;;;;;;4.15;3.33;;;;;;;36.76;33.65;99722.08;1768531;80;21037;-75
2022/08/30 11:09:03;;;;;;;3.47;3.17;;;;;;;36.72;33.47;99724.48;1756776;80;21045;-76
2022/08/30 11:12:15;;;;;;;4.35;3.20;;;;;;;36.94;33.25;99732.34;1729141;81;21062;-81
2022/08/30 11:14:43;;;;;;;4.10;3.65;;;;;;;36.86;33.12;99719.43;1721900;82;21085;-82
2022/08/30 11:17:34;;;;;;;5.08;3.50;;;;;;;36.67;33.50;99715.04;1755276;81;20966;-81
2022/08/30 11:20:03;;;;;;;3.25;3.00;;;;;;;36.96;33.81;99710.66;1750056;81;21089;-85
2022/08/30 11:22:35;;;;;;;4.92;3.62;;;;;;;37.56;33.31;99712.91;1756454;81;20982;-81
2022/08/30 11:25:13;;;;;;;3.27;2.85;;;;;;;38.02;32.71;99707.12;1760822;81;21096;-81
2022/08/30 11:27:53;;;;;;;4.20;3.80;;;;;;;38.58;32.21;99707.07;1765846;81;21182;-81
2022/08/30 11:30:28;;;;;;;3.80;3.40;;;;;;;39.33;31.44;99708.08;1775580;80;21486;-78
2022/08/30 11:33:12;;;;;;;8.15;3.65;;;;;;;39.83;30.81;99711.11;1760968;80;21052;-78
2022/08/30 11:35:54;;;;;;;3.80;3.40;;;;;;;39.96;30.46;99702.86;1761012;80;21073;-80
2022/08/30 11:38:32;;;;;;;4.08;3.35;;;;;;;39.79;30.01;99709.64;1772790;80;21038;-76
2022/08/30 11:41:15;;;;;;;7.22;3.37;;;;;;;39.55;30.40;99712.73;1762338;80;21152;-78
2022/08/30 11:43:47;;;;;;;3.52;3.15;;;;;;;39.77;30.32;99710.59;1743746;80;20995;-80
2022/08/30 11:46:31;;;;;;;3.50;3.15;;;;;;;39.71;29.64;99707.30;1765047;80;20994;-79
2022/08/30 11:49:18;;;;;;;3.30;2.98;;;;;;;39.12;29.98;99700.86;1767996;80;21002;-78
2022/08/30 11:51:57;;;;;;;3.67;3.37;;;;;;;38.69;30.50;99693.44;1751219;81;21593;-77
2022/08/30 11:55:19;;;;;;;4.45;3.17;;;;;;;38.84;30.70;99694.60;1740522;81;21224;-77